Main page
METAR-TAF:

METAR-TAF

Airports :

Porto, Portugal

Porto Airport

latitude: 41-14N, longitude: 008-41W, elevation: 69 m

Current weather observation

The report was made 24 minutes ago, at 09:30 UTC
Wind 5 kt from the Northeast, varying between North and East
Temperature 13°C
Humidity 72%
Pressure 1029 hPa
Visibility 10 km or more
no clouds below 1500 m and no cumulonimbus

METAR: LPPR 220930Z 05005KT 010V080 CAVOK 13/08 Q1029

Time: 10:54 (09:54 UTC)

Forecast

The report was made 4 hours and 54 minutes ago, at 05:00 UTC
Forecast valid from 22 at 06 UTC to 23 at 06 UTC
Wind 5 kt from the North/Northeast
Visibility 10 km or more
no clouds below 1500 m and no cumulonimbus
Becoming
from 22 at 13 UTC to 22 at 15 UTC
Wind 10 kt from the North/Northwest
Becoming
from 22 at 20 UTC to 22 at 22 UTC
Wind 5 kt from the North
Becoming
from 23 at 00 UTC to 23 at 02 UTC
Wind 7 kt from the East

TAF: LPPR 220500Z 2206/2306 03005KT CAVOK BECMG 2213/2215 33010KT BECMG 2220/2222 01005KT BECMG 2300/2302 08007KT

Weather observations and forecasts of more than 4000 airports (METAR and TAF reports).

The available stations are represented by yellow and red dots on the map.

Hover mouse over dot to see the name of the station.

Then click to see weather observations and forecasts.

To change the map : click on the green buttons with a black cross to zoom in, on the green button with a dash to zoom out, or on the green arrows for adjacent maps.


METAR-TAF: